createdAt,value
2022-10-15T00:04:35.489Z,11.91
2022-10-15T00:09:41.833Z,11.87
2022-10-15T00:14:54.422Z,11.84
2022-10-15T00:19:58.496Z,11.81
2022-10-15T00:25:00.226Z,11.76
2022-10-15T00:30:07.250Z,11.74
2022-10-15T00:35:09.134Z,11.69
2022-10-15T00:40:12.229Z,11.66
2022-10-15T00:45:15.847Z,11.59
2022-10-15T00:50:22.996Z,11.54
2022-10-15T00:55:27.639Z,11.49
2022-10-15T01:00:31.636Z,11.46
2022-10-15T01:05:41.621Z,11.44
2022-10-15T01:10:57.185Z,11.40
2022-10-15T01:21:34.775Z,11.32
2022-10-15T01:26:53.903Z,11.26
2022-10-15T01:32:04.583Z,11.24
2022-10-15T01:37:27.352Z,11.21
2022-10-15T01:42:38.471Z,11.18
2022-10-15T01:47:48.440Z,11.16
2022-10-15T01:52:55.910Z,11.13
2022-10-15T01:58:05.740Z,11.16
2022-10-15T02:03:10.068Z,11.17
2022-10-15T02:08:34.651Z,11.19
2022-10-15T02:13:59.753Z,11.20
2022-10-15T02:19:29.648Z,11.23
2022-10-15T02:24:41.180Z,11.24
2022-10-15T02:29:49.462Z,11.25
2022-10-15T02:34:52.417Z,11.27
2022-10-15T02:39:56.784Z,11.29
2022-10-15T02:45:02.160Z,11.29
2022-10-15T02:50:07.888Z,11.32
2022-10-15T02:55:14.258Z,11.32
2022-10-15T03:00:18.993Z,11.33
2022-10-15T03:05:23.883Z,11.33
2022-10-15T03:10:28.496Z,11.32
2022-10-15T03:15:33.675Z,11.30
2022-10-15T03:20:41.913Z,11.30
2022-10-15T03:25:43.728Z,11.31
2022-10-15T03:30:49.655Z,11.31
2022-10-15T03:35:55.258Z,11.31
2022-10-15T03:40:58.157Z,11.30
2022-10-15T03:46:12.311Z,11.29
2022-10-15T03:51:22.029Z,11.28
2022-10-15T03:56:30.943Z,11.28
2022-10-15T04:01:51.750Z,11.28
2022-10-15T04:06:54.427Z,11.29
2022-10-15T04:12:01.249Z,11.30
2022-10-15T04:17:06.541Z,11.29
2022-10-15T04:22:09.155Z,11.31
2022-10-15T04:27:19.754Z,11.34
2022-10-15T04:32:23.944Z,11.38
2022-10-15T04:37:31.891Z,11.39
2022-10-15T04:42:34.380Z,11.42
2022-10-15T04:47:37.334Z,11.43
2022-10-15T04:52:48.865Z,11.44
2022-10-15T04:57:52.230Z,11.46
2022-10-15T05:03:03.832Z,11.48
2022-10-15T05:08:18.784Z,11.49
2022-10-15T05:13:40.664Z,11.50
2022-10-15T05:18:47.448Z,11.50
2022-10-15T05:23:51.508Z,11.51
2022-10-15T05:29:15.809Z,11.52
2022-10-15T05:34:19.471Z,11.51
2022-10-15T05:39:37.448Z,11.52
2022-10-15T05:44:39.206Z,11.51
2022-10-15T05:49:40.935Z,11.50
2022-10-15T05:54:56.425Z,11.50
2022-10-15T05:59:58.166Z,11.49
2022-10-15T06:05:02.409Z,11.49
2022-10-15T06:10:07.098Z,11.48
2022-10-15T06:15:11.697Z,11.48
2022-10-15T06:20:21.015Z,11.50
2022-10-15T06:25:26.014Z,11.50
2022-10-15T06:30:27.980Z,11.51
2022-10-15T06:35:35.248Z,11.51
2022-10-15T06:40:38.697Z,11.52
2022-10-15T06:45:43.088Z,11.72
2022-10-15T06:50:51.577Z,11.67
2022-10-15T06:55:59.671Z,11.63
2022-10-15T07:01:10.121Z,11.64
2022-10-15T07:06:15.445Z,11.64
2022-10-15T07:11:19.758Z,11.66
2022-10-15T07:16:26.483Z,11.69
2022-10-15T07:21:33.011Z,11.73
2022-10-15T07:26:41.617Z,11.75
2022-10-15T07:31:46.654Z,11.80
2022-10-15T07:36:52.291Z,11.81
2022-10-15T07:41:54.162Z,11.84
2022-10-15T07:46:55.971Z,11.88
2022-10-15T07:52:00.073Z,11.97
2022-10-15T07:57:07.373Z,11.99
2022-10-15T08:02:16.886Z,12.03
2022-10-15T08:07:20.867Z,12.05
2022-10-15T08:12:22.826Z,12.12
2022-10-15T08:17:26.885Z,12.21
2022-10-15T08:22:28.643Z,12.33
2022-10-15T08:27:32.077Z,12.44
2022-10-15T08:32:38.355Z,12.59
2022-10-15T08:37:42.327Z,12.76
2022-10-15T08:42:46.342Z,12.90
2022-10-15T08:47:53.466Z,13.06
2022-10-15T08:52:58.594Z,13.24
2022-10-15T08:58:13.952Z,13.36
2022-10-15T09:03:34.068Z,13.50
2022-10-15T09:09:08.870Z,13.65
2022-10-15T09:14:17.155Z,13.83
2022-10-15T09:19:24.786Z,13.87
2022-10-15T09:24:35.341Z,14.09
2022-10-15T09:29:48.161Z,14.17
2022-10-15T09:34:55.071Z,14.29
2022-10-15T09:40:10.731Z,14.22
2022-10-15T09:45:14.889Z,14.22
2022-10-15T09:55:41.344Z,14.72
2022-10-15T10:01:03.255Z,14.83
2022-10-15T10:06:12.962Z,15.01
2022-10-15T10:11:21.404Z,15.23
2022-10-15T10:16:23.995Z,15.49
2022-10-15T10:21:39.202Z,15.68
2022-10-15T10:26:43.498Z,15.69
2022-10-15T10:31:50.355Z,15.87
2022-10-15T10:37:03.732Z,15.96
2022-10-15T10:42:21.566Z,16.17
2022-10-15T10:47:25.781Z,16.34
2022-10-15T10:52:34.219Z,16.36
2022-10-15T10:57:48.471Z,16.51
2022-10-15T11:02:54.044Z,16.95
2022-10-15T11:08:18.914Z,16.92
2022-10-15T11:13:33.085Z,16.74
2022-10-15T11:19:19.833Z,16.79
2022-10-15T11:24:48.874Z,17.28
2022-10-15T11:30:06.516Z,17.11
2022-10-15T11:35:20.152Z,16.67
2022-10-15T11:40:53.543Z,16.39
2022-10-15T11:46:34.351Z,16.32
2022-10-15T11:52:08.163Z,16.81
2022-10-15T11:57:13.983Z,18.06
2022-10-15T12:02:37.856Z,18.74
2022-10-15T12:07:43.996Z,18.45
2022-10-15T12:12:53.618Z,18.80
2022-10-15T12:18:28.154Z,18.59
2022-10-15T12:23:37.714Z,19.01
2022-10-15T12:28:48.341Z,18.03
2022-10-15T12:33:55.555Z,18.42
2022-10-15T12:39:33.589Z,18.08
2022-10-15T12:44:53.098Z,17.44
2022-10-15T12:50:04.991Z,17.05
2022-10-15T12:55:39.475Z,16.78
2022-10-15T13:00:46.100Z,16.69
2022-10-15T13:05:53.115Z,16.74
2022-10-15T13:11:27.690Z,16.44
2022-10-15T13:16:34.679Z,16.39
2022-10-15T13:21:49.905Z,16.42
2022-10-15T13:26:52.392Z,16.31
2022-10-15T13:31:59.270Z,16.26
2022-10-15T13:37:04.623Z,16.29
2022-10-15T13:42:19.490Z,16.19
2022-10-15T13:47:29.916Z,16.12
2022-10-15T13:52:31.874Z,16.11
2022-10-15T13:57:36.168Z,16.01
2022-10-15T14:02:37.955Z,16.02
2022-10-15T14:07:54.736Z,16.17
2022-10-15T14:12:56.517Z,16.12
2022-10-15T14:18:00.576Z,16.03
2022-10-15T14:23:02.313Z,15.96
2022-10-15T14:28:05.564Z,15.91
2022-10-15T14:33:42.209Z,15.77
2022-10-15T14:38:49.710Z,15.64
2022-10-15T14:44:15.112Z,15.49
2022-10-15T14:49:31.807Z,15.35
2022-10-15T14:54:56.865Z,15.24
2022-10-15T15:00:05.327Z,15.13
2022-10-15T15:05:11.226Z,15.02
2022-10-15T15:10:18.892Z,15.02
2022-10-15T15:15:24.940Z,14.97
2022-10-15T15:20:26.870Z,14.87
2022-10-15T15:25:41.840Z,14.82
2022-10-15T15:30:45.130Z,14.80
2022-10-15T15:35:51.521Z,14.76
2022-10-15T15:40:53.188Z,14.70
2022-10-15T15:45:54.999Z,14.67
2022-10-15T15:51:06.035Z,14.62
2022-10-15T15:56:07.788Z,14.64
2022-10-15T16:01:12.197Z,14.62
2022-10-15T16:06:14.068Z,14.61
2022-10-15T16:11:15.852Z,14.61
2022-10-15T16:16:17.622Z,14.58
2022-10-15T16:21:26.412Z,14.59
2022-10-15T16:26:28.962Z,14.60
2022-10-15T16:31:36.922Z,14.60
2022-10-15T16:36:40.956Z,14.61
2022-10-15T16:41:42.679Z,14.60
2022-10-15T16:46:46.699Z,14.63
2022-10-15T16:51:56.032Z,14.66
2022-10-15T16:57:03.389Z,14.68
2022-10-15T17:02:06.203Z,14.69
2022-10-15T17:07:10.063Z,14.70
2022-10-15T17:12:17.255Z,14.68
2022-10-15T17:17:25.212Z,14.65
2022-10-15T17:22:30.784Z,14.61
2022-10-15T17:27:35.716Z,14.56
2022-10-15T17:32:37.598Z,14.53
2022-10-15T17:37:41.464Z,14.48
2022-10-15T17:42:47.815Z,14.48
2022-10-15T17:47:52.535Z,14.49
2022-10-15T17:52:54.988Z,14.51
2022-10-15T17:57:59.762Z,14.54
2022-10-15T18:03:06.907Z,14.53
2022-10-15T18:08:12.279Z,14.48
2022-10-15T18:13:14.048Z,14.42
2022-10-15T18:18:22.054Z,14.38
2022-10-15T18:23:25.986Z,14.37
2022-10-15T18:28:30.330Z,14.32
2022-10-15T18:33:32.376Z,14.29
2022-10-15T18:38:37.877Z,14.28
2022-10-15T18:43:41.680Z,14.26
2022-10-15T18:48:44.084Z,14.25
2022-10-15T18:53:46.136Z,14.21
2022-10-15T18:58:52.410Z,14.16
2022-10-15T19:03:58.223Z,14.09
2022-10-15T19:09:02.089Z,14.01
2022-10-15T19:14:08.926Z,13.99
2022-10-15T19:19:14.936Z,13.95
2022-10-15T19:24:21.213Z,13.96
2022-10-15T19:29:23.094Z,13.94
2022-10-15T19:34:29.126Z,13.91
2022-10-15T19:39:32.776Z,13.83
2022-10-15T19:44:35.114Z,13.79
2022-10-15T19:49:39.491Z,13.76
2022-10-15T19:54:45.904Z,13.70
2022-10-15T19:59:53.461Z,13.62
2022-10-15T20:05:00.042Z,13.59
2022-10-15T20:10:04.217Z,13.54
2022-10-15T20:15:09.421Z,13.49
2022-10-15T20:20:16.049Z,13.44
2022-10-15T20:25:17.788Z,13.39
2022-10-15T20:30:19.493Z,13.35
2022-10-15T20:35:23.820Z,13.30
2022-10-15T20:40:25.684Z,13.27
2022-10-15T20:45:34.576Z,13.22
2022-10-15T20:50:38.699Z,13.19
2022-10-15T20:55:44.988Z,13.16
2022-10-15T21:00:51.572Z,13.13
2022-10-15T21:05:57.828Z,13.09
2022-10-15T21:11:06.500Z,13.06
2022-10-15T21:16:11.229Z,12.99
2022-10-15T21:21:17.739Z,12.95
2022-10-15T21:26:23.837Z,12.88
2022-10-15T21:31:28.183Z,12.82
2022-10-15T21:36:35.387Z,12.79
2022-10-15T21:41:38.995Z,12.76
2022-10-15T21:46:43.380Z,12.74
2022-10-15T21:51:45.066Z,12.72
2022-10-15T21:56:47.540Z,12.68
2022-10-15T22:01:54.723Z,12.64
2022-10-15T22:06:59.868Z,12.61
2022-10-15T22:12:01.643Z,12.58
2022-10-15T22:17:05.976Z,12.60
2022-10-15T22:22:09.627Z,12.57
2022-10-15T22:27:13.564Z,12.55
2022-10-15T22:32:17.746Z,12.52
2022-10-15T22:37:21.691Z,12.50
2022-10-15T22:42:25.760Z,12.48
2022-10-15T22:47:34.505Z,12.44
2022-10-15T22:52:38.305Z,12.41
2022-10-15T22:57:42.566Z,12.37
2022-10-15T23:02:49.012Z,12.33
2022-10-15T23:07:53.038Z,12.31
2022-10-15T23:12:57.802Z,12.28
2022-10-15T23:18:04.562Z,12.30
2022-10-15T23:23:08.829Z,12.29
2022-10-15T23:28:15.369Z,12.27
2022-10-15T23:33:19.226Z,12.26
2022-10-15T23:38:23.236Z,12.26
2022-10-15T23:43:24.953Z,12.23
2022-10-15T23:48:27.395Z,12.21
2022-10-15T23:53:34.125Z,12.18
2022-10-15T23:58:38.456Z,12.14
